sensor_id;sensor_type;location;lat;lon;timestamp;P1;durP1;ratioP1;P2;durP2;ratioP2
19167;SDS011;9716;53.114;18.040;2024-01-30T00:02:20;27.67;;;12.27;;
19167;SDS011;9716;53.114;18.040;2024-01-30T00:04:49;26.73;;;11.00;;
19167;SDS011;9716;53.114;18.040;2024-01-30T00:07:17;29.47;;;10.93;;
19167;SDS011;9716;53.114;18.040;2024-01-30T00:09:46;22.93;;;10.23;;
19167;SDS011;9716;53.114;18.040;2024-01-30T00:12:16;25.80;;;11.63;;
19167;SDS011;9716;53.114;18.040;2024-01-30T00:14:45;27.50;;;11.03;;
19167;SDS011;9716;53.114;18.040;2024-01-30T00:17:14;29.03;;;11.60;;
19167;SDS011;9716;53.114;18.040;2024-01-30T00:19:43;26.57;;;10.80;;
19167;SDS011;9716;53.114;18.040;2024-01-30T00:22:11;27.37;;;10.50;;
19167;SDS011;9716;53.114;18.040;2024-01-30T00:24:40;26.67;;;10.20;;
19167;SDS011;9716;53.114;18.040;2024-01-30T00:27:08;36.77;;;11.60;;
19167;SDS011;9716;53.114;18.040;2024-01-30T00:29:38;27.97;;;11.17;;
19167;SDS011;9716;53.114;18.040;2024-01-30T00:32:07;29.77;;;10.93;;
19167;SDS011;9716;53.114;18.040;2024-01-30T00:34:35;32.30;;;12.17;;
19167;SDS011;9716;53.114;18.040;2024-01-30T00:37:04;23.37;;;9.47;;
19167;SDS011;9716;53.114;18.040;2024-01-30T00:39:32;28.77;;;10.90;;
19167;SDS011;9716;53.114;18.040;2024-01-30T00:42:01;26.60;;;10.27;;
19167;SDS011;9716;53.114;18.040;2024-01-30T00:44:29;29.27;;;11.17;;
19167;SDS011;9716;53.114;18.040;2024-01-30T00:46:59;25.10;;;9.83;;
19167;SDS011;9716;53.114;18.040;2024-01-30T00:49:27;26.30;;;10.57;;
19167;SDS011;9716;53.114;18.040;2024-01-30T00:51:56;25.60;;;10.93;;
19167;SDS011;9716;53.114;18.040;2024-01-30T00:54:25;26.53;;;10.87;;
19167;SDS011;9716;53.114;18.040;2024-01-30T00:56:53;30.30;;;9.67;;
19167;SDS011;9716;53.114;18.040;2024-01-30T00:59:22;24.07;;;9.77;;
19167;SDS011;9716;53.114;18.040;2024-01-30T01:01:50;21.70;;;9.53;;
19167;SDS011;9716;53.114;18.040;2024-01-30T01:04:20;24.23;;;10.10;;
19167;SDS011;9716;53.114;18.040;2024-01-30T01:06:49;24.47;;;9.87;;
19167;SDS011;9716;53.114;18.040;2024-01-30T01:09:18;24.30;;;10.57;;
19167;SDS011;9716;53.114;18.040;2024-01-30T01:11:46;28.13;;;11.60;;
19167;SDS011;9716;53.114;18.040;2024-01-30T01:14:15;29.10;;;10.67;;
19167;SDS011;9716;53.114;18.040;2024-01-30T01:16:43;23.73;;;10.70;;
19167;SDS011;9716;53.114;18.040;2024-01-30T01:19:12;25.90;;;10.80;;
19167;SDS011;9716;53.114;18.040;2024-01-30T01:21:42;25.77;;;10.93;;
19167;SDS011;9716;53.114;18.040;2024-01-30T01:24:10;20.93;;;8.97;;
19167;SDS011;9716;53.114;18.040;2024-01-30T01:26:39;26.90;;;10.20;;
19167;SDS011;9716;53.114;18.040;2024-01-30T01:29:08;24.50;;;10.17;;
19167;SDS011;9716;53.114;18.040;2024-01-30T01:31:38;28.87;;;10.70;;
19167;SDS011;9716;53.114;18.040;2024-01-30T01:34:10;28.87;;;9.63;;
19167;SDS011;9716;53.114;18.040;2024-01-30T01:36:39;25.43;;;10.73;;
19167;SDS011;9716;53.114;18.040;2024-01-30T01:39:09;26.73;;;11.00;;
19167;SDS011;9716;53.114;18.040;2024-01-30T01:41:38;27.30;;;11.03;;
19167;SDS011;9716;53.114;18.040;2024-01-30T01:44:06;26.40;;;9.90;;
19167;SDS011;9716;53.114;18.040;2024-01-30T01:46:35;27.20;;;10.47;;
19167;SDS011;9716;53.114;18.040;2024-01-30T01:49:04;26.00;;;10.20;;
19167;SDS011;9716;53.114;18.040;2024-01-30T01:51:34;26.93;;;10.77;;
19167;SDS011;9716;53.114;18.040;2024-01-30T01:54:04;24.67;;;8.80;;
19167;SDS011;9716;53.114;18.040;2024-01-30T01:56:35;28.30;;;11.47;;
19167;SDS011;9716;53.114;18.040;2024-01-30T01:59:05;24.40;;;9.73;;
19167;SDS011;9716;53.114;18.040;2024-01-30T02:01:35;23.03;;;9.33;;
19167;SDS011;9716;53.114;18.040;2024-01-30T02:04:04;22.67;;;9.60;;
19167;SDS011;9716;53.114;18.040;2024-01-30T02:06:33;23.43;;;9.50;;
19167;SDS011;9716;53.114;18.040;2024-01-30T02:09:02;26.70;;;10.50;;
19167;SDS011;9716;53.114;18.040;2024-01-30T02:11:31;23.93;;;8.90;;
19167;SDS011;9716;53.114;18.040;2024-01-30T02:14:03;31.53;;;10.23;;
19167;SDS011;9716;53.114;18.040;2024-01-30T02:16:32;23.57;;;9.47;;
19167;SDS011;9716;53.114;18.040;2024-01-30T02:19:00;27.70;;;10.50;;
19167;SDS011;9716;53.114;18.040;2024-01-30T02:21:31;22.63;;;9.63;;
19167;SDS011;9716;53.114;18.040;2024-01-30T02:23:59;24.23;;;9.93;;
19167;SDS011;9716;53.114;18.040;2024-01-30T02:26:28;20.07;;;9.33;;
19167;SDS011;9716;53.114;18.040;2024-01-30T02:28:57;28.20;;;9.83;;
19167;SDS011;9716;53.114;18.040;2024-01-30T02:31:25;22.20;;;8.87;;
19167;SDS011;9716;53.114;18.040;2024-01-30T02:33:54;21.30;;;9.37;;
19167;SDS011;9716;53.114;18.040;2024-01-30T02:36:22;21.87;;;9.40;;
19167;SDS011;9716;53.114;18.040;2024-01-30T02:38:52;26.53;;;9.70;;
19167;SDS011;9716;53.114;18.040;2024-01-30T02:41:21;22.23;;;9.83;;
19167;SDS011;9716;53.114;18.040;2024-01-30T02:43:49;28.33;;;10.30;;
19167;SDS011;9716;53.114;18.040;2024-01-30T02:46:18;29.40;;;11.17;;
19167;SDS011;9716;53.114;18.040;2024-01-30T02:48:46;20.07;;;9.50;;
19167;SDS011;9716;53.114;18.040;2024-01-30T02:51:15;25.13;;;9.80;;
19167;SDS011;9716;53.114;18.040;2024-01-30T02:53:44;22.77;;;8.70;;
19167;SDS011;9716;53.114;18.040;2024-01-30T02:56:14;24.90;;;8.97;;
19167;SDS011;9716;53.114;18.040;2024-01-30T02:58:42;21.93;;;9.63;;
19167;SDS011;9716;53.114;18.040;2024-01-30T03:01:11;22.80;;;8.87;;
19167;SDS011;9716;53.114;18.040;2024-01-30T03:03:40;24.87;;;9.20;;
19167;SDS011;9716;53.114;18.040;2024-01-30T03:06:10;22.53;;;9.53;;
19167;SDS011;9716;53.114;18.040;2024-01-30T03:08:39;23.63;;;10.47;;
19167;SDS011;9716;53.114;18.040;2024-01-30T03:11:07;23.47;;;9.37;;
19167;SDS011;9716;53.114;18.040;2024-01-30T03:13:37;20.97;;;8.23;;
19167;SDS011;9716;53.114;18.040;2024-01-30T03:16:06;21.17;;;9.17;;
19167;SDS011;9716;53.114;18.040;2024-01-30T03:18:35;22.13;;;9.83;;
19167;SDS011;9716;53.114;18.040;2024-01-30T03:21:04;25.97;;;10.27;;
19167;SDS011;9716;53.114;18.040;2024-01-30T03:23:32;23.37;;;9.77;;
19167;SDS011;9716;53.114;18.040;2024-01-30T03:26:01;20.23;;;8.17;;
19167;SDS011;9716;53.114;18.040;2024-01-30T03:28:33;22.07;;;10.07;;
19167;SDS011;9716;53.114;18.040;2024-01-30T03:31:03;25.27;;;9.63;;
19167;SDS011;9716;53.114;18.040;2024-01-30T03:33:31;22.50;;;9.60;;
19167;SDS011;9716;53.114;18.040;2024-01-30T03:36:02;21.30;;;9.90;;
19167;SDS011;9716;53.114;18.040;2024-01-30T03:38:32;24.67;;;10.37;;
19167;SDS011;9716;53.114;18.040;2024-01-30T03:41:01;18.60;;;8.87;;
19167;SDS011;9716;53.114;18.040;2024-01-30T03:43:29;21.87;;;9.10;;
19167;SDS011;9716;53.114;18.040;2024-01-30T03:45:58;23.77;;;8.63;;
19167;SDS011;9716;53.114;18.040;2024-01-30T03:48:30;23.47;;;8.90;;
19167;SDS011;9716;53.114;18.040;2024-01-30T03:50:59;21.23;;;9.10;;
19167;SDS011;9716;53.114;18.040;2024-01-30T03:53:27;29.77;;;11.20;;
19167;SDS011;9716;53.114;18.040;2024-01-30T03:55:56;25.40;;;10.00;;
19167;SDS011;9716;53.114;18.040;2024-01-30T03:58:24;23.60;;;10.87;;
19167;SDS011;9716;53.114;18.040;2024-01-30T04:00:53;22.63;;;8.43;;
19167;SDS011;9716;53.114;18.040;2024-01-30T04:03:21;21.73;;;9.93;;
19167;SDS011;9716;53.114;18.040;2024-01-30T04:05:52;25.00;;;11.27;;
19167;SDS011;9716;53.114;18.040;2024-01-30T04:08:21;29.57;;;11.93;;
19167;SDS011;9716;53.114;18.040;2024-01-30T04:10:50;25.20;;;10.00;;
19167;SDS011;9716;53.114;18.040;2024-01-30T04:13:18;19.13;;;9.40;;
19167;SDS011;9716;53.114;18.040;2024-01-30T04:15:47;30.37;;;11.20;;
19167;SDS011;9716;53.114;18.040;2024-01-30T04:18:15;23.10;;;9.93;;
19167;SDS011;9716;53.114;18.040;2024-01-30T04:20:44;23.73;;;10.63;;
19167;SDS011;9716;53.114;18.040;2024-01-30T04:23:14;26.27;;;11.13;;
19167;SDS011;9716;53.114;18.040;2024-01-30T04:25:43;23.77;;;9.33;;
19167;SDS011;9716;53.114;18.040;2024-01-30T04:28:11;30.97;;;13.17;;
19167;SDS011;9716;53.114;18.040;2024-01-30T04:30:40;31.37;;;12.03;;
19167;SDS011;9716;53.114;18.040;2024-01-30T04:33:08;21.43;;;10.37;;
19167;SDS011;9716;53.114;18.040;2024-01-30T04:35:38;26.43;;;11.63;;
19167;SDS011;9716;53.114;18.040;2024-01-30T04:38:06;30.80;;;12.20;;
19167;SDS011;9716;53.114;18.040;2024-01-30T04:40:36;27.93;;;12.00;;
19167;SDS011;9716;53.114;18.040;2024-01-30T04:43:04;31.13;;;12.17;;
19167;SDS011;9716;53.114;18.040;2024-01-30T04:45:33;28.07;;;10.90;;
19167;SDS011;9716;53.114;18.040;2024-01-30T04:48:02;37.47;;;13.30;;
19167;SDS011;9716;53.114;18.040;2024-01-30T04:50:31;33.33;;;11.43;;
19167;SDS011;9716;53.114;18.040;2024-01-30T04:53:00;28.60;;;13.03;;
19167;SDS011;9716;53.114;18.040;2024-01-30T04:55:28;31.13;;;12.87;;
19167;SDS011;9716;53.114;18.040;2024-01-30T04:57:58;36.77;;;14.23;;
19167;SDS011;9716;53.114;18.040;2024-01-30T05:00:27;30.40;;;14.10;;
19167;SDS011;9716;53.114;18.040;2024-01-30T05:02:55;33.63;;;13.43;;
19167;SDS011;9716;53.114;18.040;2024-01-30T05:05:24;41.73;;;16.27;;
19167;SDS011;9716;53.114;18.040;2024-01-30T05:07:52;33.67;;;13.17;;
19167;SDS011;9716;53.114;18.040;2024-01-30T05:10:21;40.67;;;14.47;;
19167;SDS011;9716;53.114;18.040;2024-01-30T05:12:49;38.23;;;14.53;;
19167;SDS011;9716;53.114;18.040;2024-01-30T05:15:19;46.80;;;15.27;;
19167;SDS011;9716;53.114;18.040;2024-01-30T05:17:48;36.73;;;15.33;;
19167;SDS011;9716;53.114;18.040;2024-01-30T05:20:17;38.93;;;16.37;;
19167;SDS011;9716;53.114;18.040;2024-01-30T05:22:45;39.97;;;14.23;;
19167;SDS011;9716;53.114;18.040;2024-01-30T05:25:14;33.47;;;13.93;;
19167;SDS011;9716;53.114;18.040;2024-01-30T05:27:42;44.90;;;16.97;;
19167;SDS011;9716;53.114;18.040;2024-01-30T05:30:11;42.00;;;17.13;;
19167;SDS011;9716;53.114;18.040;2024-01-30T05:32:41;44.50;;;15.53;;
19167;SDS011;9716;53.114;18.040;2024-01-30T05:35:10;37.97;;;15.30;;
19167;SDS011;9716;53.114;18.040;2024-01-30T05:37:38;43.13;;;17.47;;
19167;SDS011;9716;53.114;18.040;2024-01-30T05:40:07;50.00;;;18.50;;
19167;SDS011;9716;53.114;18.040;2024-01-30T05:42:36;53.67;;;18.00;;
19167;SDS011;9716;53.114;18.040;2024-01-30T05:45:05;52.50;;;18.33;;
19167;SDS011;9716;53.114;18.040;2024-01-30T05:47:38;52.20;;;21.10;;
19167;SDS011;9716;53.114;18.040;2024-01-30T05:50:09;53.90;;;17.73;;
19167;SDS011;9716;53.114;18.040;2024-01-30T05:52:37;42.73;;;17.83;;
19167;SDS011;9716;53.114;18.040;2024-01-30T05:55:06;41.23;;;17.13;;
19167;SDS011;9716;53.114;18.040;2024-01-30T05:57:35;46.07;;;16.30;;
19167;SDS011;9716;53.114;18.040;2024-01-30T06:00:04;51.90;;;17.97;;
19167;SDS011;9716;53.114;18.040;2024-01-30T06:02:34;44.20;;;17.67;;
19167;SDS011;9716;53.114;18.040;2024-01-30T06:05:02;41.33;;;15.53;;
19167;SDS011;9716;53.114;18.040;2024-01-30T06:07:32;31.53;;;15.53;;
19167;SDS011;9716;53.114;18.040;2024-01-30T06:10:03;46.93;;;17.90;;
19167;SDS011;9716;53.114;18.040;2024-01-30T06:12:33;36.63;;;16.70;;
19167;SDS011;9716;53.114;18.040;2024-01-30T06:15:02;43.90;;;17.67;;
19167;SDS011;9716;53.114;18.040;2024-01-30T06:17:31;46.97;;;17.00;;
19167;SDS011;9716;53.114;18.040;2024-01-30T06:20:00;46.27;;;17.27;;
19167;SDS011;9716;53.114;18.040;2024-01-30T06:22:29;46.80;;;18.97;;
19167;SDS011;9716;53.114;18.040;2024-01-30T06:24:59;49.67;;;19.10;;
19167;SDS011;9716;53.114;18.040;2024-01-30T06:27:28;40.97;;;15.93;;
19167;SDS011;9716;53.114;18.040;2024-01-30T06:29:57;45.33;;;16.30;;
19167;SDS011;9716;53.114;18.040;2024-01-30T06:32:26;41.17;;;14.47;;
19167;SDS011;9716;53.114;18.040;2024-01-30T06:34:55;45.10;;;16.00;;
19167;SDS011;9716;53.114;18.040;2024-01-30T06:37:24;41.03;;;16.00;;
19167;SDS011;9716;53.114;18.040;2024-01-30T06:39:53;44.27;;;17.00;;
19167;SDS011;9716;53.114;18.040;2024-01-30T06:42:23;42.00;;;16.53;;
19167;SDS011;9716;53.114;18.040;2024-01-30T06:44:51;48.93;;;16.43;;
19167;SDS011;9716;53.114;18.040;2024-01-30T06:47:20;46.60;;;17.30;;
19167;SDS011;9716;53.114;18.040;2024-01-30T06:49:50;42.37;;;16.20;;
19167;SDS011;9716;53.114;18.040;2024-01-30T06:52:19;53.77;;;18.53;;
19167;SDS011;9716;53.114;18.040;2024-01-30T06:54:47;39.07;;;16.70;;
19167;SDS011;9716;53.114;18.040;2024-01-30T06:57:16;51.17;;;16.23;;
19167;SDS011;9716;53.114;18.040;2024-01-30T06:59:46;39.77;;;15.53;;
19167;SDS011;9716;53.114;18.040;2024-01-30T07:02:14;40.00;;;15.90;;
19167;SDS011;9716;53.114;18.040;2024-01-30T07:04:43;36.20;;;15.97;;
19167;SDS011;9716;53.114;18.040;2024-01-30T07:07:13;44.10;;;16.73;;
19167;SDS011;9716;53.114;18.040;2024-01-30T07:09:42;37.07;;;15.07;;
19167;SDS011;9716;53.114;18.040;2024-01-30T07:12:11;50.30;;;16.80;;
19167;SDS011;9716;53.114;18.040;2024-01-30T07:14:40;47.00;;;16.13;;
19167;SDS011;9716;53.114;18.040;2024-01-30T07:17:10;47.63;;;17.93;;
19167;SDS011;9716;53.114;18.040;2024-01-30T07:19:39;42.80;;;16.73;;
19167;SDS011;9716;53.114;18.040;2024-01-30T07:22:07;42.57;;;15.93;;
19167;SDS011;9716;53.114;18.040;2024-01-30T07:24:36;43.77;;;16.47;;
19167;SDS011;9716;53.114;18.040;2024-01-30T07:27:11;46.30;;;15.20;;
19167;SDS011;9716;53.114;18.040;2024-01-30T07:29:40;40.43;;;15.87;;
19167;SDS011;9716;53.114;18.040;2024-01-30T07:32:08;38.60;;;13.20;;
19167;SDS011;9716;53.114;18.040;2024-01-30T07:34:38;43.37;;;15.57;;
19167;SDS011;9716;53.114;18.040;2024-01-30T07:37:24;41.83;;;14.37;;
19167;SDS011;9716;53.114;18.040;2024-01-30T07:39:55;33.13;;;13.40;;
19167;SDS011;9716;53.114;18.040;2024-01-30T07:42:27;33.60;;;14.70;;
19167;SDS011;9716;53.114;18.040;2024-01-30T07:44:56;40.57;;;14.03;;
19167;SDS011;9716;53.114;18.040;2024-01-30T07:47:24;30.43;;;12.50;;
19167;SDS011;9716;53.114;18.040;2024-01-30T07:49:55;32.30;;;12.27;;
19167;SDS011;9716;53.114;18.040;2024-01-30T07:52:23;31.27;;;12.00;;
19167;SDS011;9716;53.114;18.040;2024-01-30T07:54:52;36.63;;;13.30;;
19167;SDS011;9716;53.114;18.040;2024-01-30T07:57:21;31.53;;;12.03;;
19167;SDS011;9716;53.114;18.040;2024-01-30T07:59:50;29.50;;;12.10;;
19167;SDS011;9716;53.114;18.040;2024-01-30T08:02:18;30.37;;;11.30;;
19167;SDS011;9716;53.114;18.040;2024-01-30T08:04:47;30.67;;;13.03;;
19167;SDS011;9716;53.114;18.040;2024-01-30T08:07:17;27.70;;;11.07;;
19167;SDS011;9716;53.114;18.040;2024-01-30T08:09:47;31.57;;;11.77;;
19167;SDS011;9716;53.114;18.040;2024-01-30T08:12:16;27.67;;;10.93;;
19167;SDS011;9716;53.114;18.040;2024-01-30T08:14:44;29.53;;;10.40;;
19167;SDS011;9716;53.114;18.040;2024-01-30T08:17:13;26.77;;;10.77;;
19167;SDS011;9716;53.114;18.040;2024-01-30T08:19:41;24.03;;;10.57;;
19167;SDS011;9716;53.114;18.040;2024-01-30T08:22:11;30.90;;;11.53;;
19167;SDS011;9716;53.114;18.040;2024-01-30T08:24:41;21.57;;;9.17;;
19167;SDS011;9716;53.114;18.040;2024-01-30T08:27:10;29.27;;;10.90;;
19167;SDS011;9716;53.114;18.040;2024-01-30T08:29:39;24.43;;;10.90;;
19167;SDS011;9716;53.114;18.040;2024-01-30T08:32:07;22.70;;;8.97;;
19167;SDS011;9716;53.114;18.040;2024-01-30T08:34:37;23.00;;;8.63;;
19167;SDS011;9716;53.114;18.040;2024-01-30T08:37:06;26.53;;;10.70;;
19167;SDS011;9716;53.114;18.040;2024-01-30T08:39:34;29.53;;;11.17;;
19167;SDS011;9716;53.114;18.040;2024-01-30T08:42:05;25.33;;;9.43;;
19167;SDS011;9716;53.114;18.040;2024-01-30T08:44:34;24.93;;;9.23;;
19167;SDS011;9716;53.114;18.040;2024-01-30T08:47:03;22.53;;;9.00;;
19167;SDS011;9716;53.114;18.040;2024-01-30T08:49:32;23.90;;;8.70;;
19167;SDS011;9716;53.114;18.040;2024-01-30T08:52:01;20.27;;;8.33;;
19167;SDS011;9716;53.114;18.040;2024-01-30T08:54:30;20.93;;;8.20;;
19167;SDS011;9716;53.114;18.040;2024-01-30T08:57:00;25.60;;;9.53;;
19167;SDS011;9716;53.114;18.040;2024-01-30T08:59:31;25.80;;;7.90;;
19167;SDS011;9716;53.114;18.040;2024-01-30T09:02:00;21.60;;;8.43;;
19167;SDS011;9716;53.114;18.040;2024-01-30T09:04:38;22.57;;;9.13;;
19167;SDS011;9716;53.114;18.040;2024-01-30T09:07:08;20.40;;;8.10;;
19167;SDS011;9716;53.114;18.040;2024-01-30T09:09:38;21.27;;;8.07;;
19167;SDS011;9716;53.114;18.040;2024-01-30T09:12:07;21.87;;;8.30;;
19167;SDS011;9716;53.114;18.040;2024-01-30T09:14:38;19.37;;;7.80;;
19167;SDS011;9716;53.114;18.040;2024-01-30T09:17:07;18.47;;;9.07;;
19167;SDS011;9716;53.114;18.040;2024-01-30T09:19:36;20.53;;;10.63;;
19167;SDS011;9716;53.114;18.040;2024-01-30T09:22:05;22.30;;;9.90;;
19167;SDS011;9716;53.114;18.040;2024-01-30T09:24:33;26.40;;;11.73;;
19167;SDS011;9716;53.114;18.040;2024-01-30T09:27:02;53.40;;;18.53;;
19167;SDS011;9716;53.114;18.040;2024-01-30T09:29:31;33.40;;;13.37;;
19167;SDS011;9716;53.114;18.040;2024-01-30T09:32:02;26.10;;;9.93;;
19167;SDS011;9716;53.114;18.040;2024-01-30T09:34:33;26.00;;;9.87;;
19167;SDS011;9716;53.114;18.040;2024-01-30T09:37:01;23.57;;;10.70;;
19167;SDS011;9716;53.114;18.040;2024-01-30T09:39:30;27.57;;;11.80;;
19167;SDS011;9716;53.114;18.040;2024-01-30T09:42:01;27.90;;;11.60;;
19167;SDS011;9716;53.114;18.040;2024-01-30T09:44:33;25.43;;;10.33;;
19167;SDS011;9716;53.114;18.040;2024-01-30T09:47:07;23.17;;;10.70;;
19167;SDS011;9716;53.114;18.040;2024-01-30T09:49:36;23.57;;;9.70;;
19167;SDS011;9716;53.114;18.040;2024-01-30T09:52:05;18.17;;;8.67;;
19167;SDS011;9716;53.114;18.040;2024-01-30T09:54:36;22.43;;;9.47;;
19167;SDS011;9716;53.114;18.040;2024-01-30T09:57:05;22.17;;;9.53;;
19167;SDS011;9716;53.114;18.040;2024-01-30T09:59:34;21.90;;;8.73;;
19167;SDS011;9716;53.114;18.040;2024-01-30T10:02:04;18.20;;;8.10;;
19167;SDS011;9716;53.114;18.040;2024-01-30T10:04:33;20.10;;;8.40;;
19167;SDS011;9716;53.114;18.040;2024-01-30T10:07:02;22.10;;;9.10;;
19167;SDS011;9716;53.114;18.040;2024-01-30T10:09:32;20.33;;;7.93;;
19167;SDS011;9716;53.114;18.040;2024-01-30T10:12:02;23.30;;;8.67;;
19167;SDS011;9716;53.114;18.040;2024-01-30T10:14:31;15.93;;;7.97;;
19167;SDS011;9716;53.114;18.040;2024-01-30T10:17:01;20.07;;;8.23;;
19167;SDS011;9716;53.114;18.040;2024-01-30T10:19:44;33.87;;;11.37;;
19167;SDS011;9716;53.114;18.040;2024-01-30T10:22:12;41.40;;;11.57;;
19167;SDS011;9716;53.114;18.040;2024-01-30T10:24:50;35.90;;;12.30;;
19167;SDS011;9716;53.114;18.040;2024-01-30T10:27:24;62.93;;;16.87;;
19167;SDS011;9716;53.114;18.040;2024-01-30T10:29:54;41.90;;;12.70;;
19167;SDS011;9716;53.114;18.040;2024-01-30T10:32:22;33.07;;;11.20;;
19167;SDS011;9716;53.114;18.040;2024-01-30T10:34:52;33.03;;;10.57;;
19167;SDS011;9716;53.114;18.040;2024-01-30T10:37:21;40.50;;;11.10;;
19167;SDS011;9716;53.114;18.040;2024-01-30T10:39:54;32.40;;;10.27;;
19167;SDS011;9716;53.114;18.040;2024-01-30T10:42:25;26.30;;;11.17;;
19167;SDS011;9716;53.114;18.040;2024-01-30T10:44:57;31.50;;;10.00;;
19167;SDS011;9716;53.114;18.040;2024-01-30T10:47:30;29.37;;;9.83;;
19167;SDS011;9716;53.114;18.040;2024-01-30T10:50:00;29.67;;;10.43;;
19167;SDS011;9716;53.114;18.040;2024-01-30T10:52:30;29.70;;;9.37;;
19167;SDS011;9716;53.114;18.040;2024-01-30T10:55:00;22.10;;;9.10;;
19167;SDS011;9716;53.114;18.040;2024-01-30T10:57:31;27.37;;;8.83;;
19167;SDS011;9716;53.114;18.040;2024-01-30T11:00:03;26.90;;;8.60;;
19167;SDS011;9716;53.114;18.040;2024-01-30T11:02:37;22.77;;;8.50;;
19167;SDS011;9716;53.114;18.040;2024-01-30T11:05:24;29.70;;;8.50;;
19167;SDS011;9716;53.114;18.040;2024-01-30T11:07:59;18.10;;;7.07;;
19167;SDS011;9716;53.114;18.040;2024-01-30T11:10:44;29.40;;;8.80;;
19167;SDS011;9716;53.114;18.040;2024-01-30T11:13:13;24.00;;;9.00;;
19167;SDS011;9716;53.114;18.040;2024-01-30T11:15:42;31.00;;;8.93;;
19167;SDS011;9716;53.114;18.040;2024-01-30T11:18:11;32.80;;;10.60;;
19167;SDS011;9716;53.114;18.040;2024-01-30T11:20:53;26.47;;;9.43;;
19167;SDS011;9716;53.114;18.040;2024-01-30T11:23:25;25.83;;;9.27;;
19167;SDS011;9716;53.114;18.040;2024-01-30T11:25:55;24.67;;;8.33;;
19167;SDS011;9716;53.114;18.040;2024-01-30T11:28:25;26.57;;;8.53;;
19167;SDS011;9716;53.114;18.040;2024-01-30T11:31:04;23.03;;;8.13;;
19167;SDS011;9716;53.114;18.040;2024-01-30T11:33:33;24.87;;;8.03;;
19167;SDS011;9716;53.114;18.040;2024-01-30T11:36:04;21.90;;;8.33;;
19167;SDS011;9716;53.114;18.040;2024-01-30T11:38:34;18.87;;;7.07;;
19167;SDS011;9716;53.114;18.040;2024-01-30T11:41:02;19.70;;;7.77;;
19167;SDS011;9716;53.114;18.040;2024-01-30T11:43:32;22.20;;;7.20;;
19167;SDS011;9716;53.114;18.040;2024-01-30T11:46:02;17.20;;;7.23;;
19167;SDS011;9716;53.114;18.040;2024-01-30T11:48:34;16.50;;;6.67;;
19167;SDS011;9716;53.114;18.040;2024-01-30T11:51:10;18.03;;;6.77;;
19167;SDS011;9716;53.114;18.040;2024-01-30T11:53:41;16.00;;;6.77;;
19167;SDS011;9716;53.114;18.040;2024-01-30T11:56:09;16.67;;;6.20;;
19167;SDS011;9716;53.114;18.040;2024-01-30T11:58:42;16.50;;;6.37;;
19167;SDS011;9716;53.114;18.040;2024-01-30T12:01:10;17.77;;;6.27;;
19167;SDS011;9716;53.114;18.040;2024-01-30T12:03:39;16.50;;;7.43;;
19167;SDS011;9716;53.114;18.040;2024-01-30T12:06:09;13.17;;;6.23;;
19167;SDS011;9716;53.114;18.040;2024-01-30T12:08:38;15.80;;;5.80;;
19167;SDS011;9716;53.114;18.040;2024-01-30T12:11:09;13.97;;;5.83;;
19167;SDS011;9716;53.114;18.040;2024-01-30T12:13:56;16.43;;;6.23;;
19167;SDS011;9716;53.114;18.040;2024-01-30T12:16:25;13.87;;;6.17;;
19167;SDS011;9716;53.114;18.040;2024-01-30T12:18:59;16.03;;;6.93;;
19167;SDS011;9716;53.114;18.040;2024-01-30T12:21:30;15.47;;;6.00;;
19167;SDS011;9716;53.114;18.040;2024-01-30T12:23:59;13.97;;;5.80;;
19167;SDS011;9716;53.114;18.040;2024-01-30T12:26:28;12.73;;;5.70;;
19167;SDS011;9716;53.114;18.040;2024-01-30T12:28:59;12.97;;;5.43;;
19167;SDS011;9716;53.114;18.040;2024-01-30T12:31:28;11.23;;;5.27;;
19167;SDS011;9716;53.114;18.040;2024-01-30T12:34:00;17.27;;;6.50;;
19167;SDS011;9716;53.114;18.040;2024-01-30T12:36:29;14.40;;;5.53;;
19167;SDS011;9716;53.114;18.040;2024-01-30T12:38:58;13.87;;;5.23;;
19167;SDS011;9716;53.114;18.040;2024-01-30T12:41:27;14.40;;;5.33;;
19167;SDS011;9716;53.114;18.040;2024-01-30T12:43:57;18.93;;;6.33;;
19167;SDS011;9716;53.114;18.040;2024-01-30T12:46:27;22.73;;;8.20;;
19167;SDS011;9716;53.114;18.040;2024-01-30T12:48:56;21.00;;;7.60;;
19167;SDS011;9716;53.114;18.040;2024-01-30T12:51:25;19.53;;;7.23;;
19167;SDS011;9716;53.114;18.040;2024-01-30T12:53:55;22.40;;;7.07;;
19167;SDS011;9716;53.114;18.040;2024-01-30T12:56:24;23.17;;;6.93;;
19167;SDS011;9716;53.114;18.040;2024-01-30T12:58:52;15.73;;;7.67;;
19167;SDS011;9716;53.114;18.040;2024-01-30T13:01:22;16.47;;;6.40;;
19167;SDS011;9716;53.114;18.040;2024-01-30T13:03:50;20.77;;;7.20;;
19167;SDS011;9716;53.114;18.040;2024-01-30T13:06:20;17.00;;;6.03;;
19167;SDS011;9716;53.114;18.040;2024-01-30T13:08:49;17.87;;;6.43;;
19167;SDS011;9716;53.114;18.040;2024-01-30T13:11:19;16.17;;;5.83;;
19167;SDS011;9716;53.114;18.040;2024-01-30T13:13:47;17.50;;;6.87;;
19167;SDS011;9716;53.114;18.040;2024-01-30T13:16:16;14.33;;;6.07;;
19167;SDS011;9716;53.114;18.040;2024-01-30T13:18:45;18.47;;;6.53;;
19167;SDS011;9716;53.114;18.040;2024-01-30T13:21:16;25.67;;;5.97;;
19167;SDS011;9716;53.114;18.040;2024-01-30T13:23:45;15.73;;;6.23;;
19167;SDS011;9716;53.114;18.040;2024-01-30T13:26:13;16.47;;;6.03;;
19167;SDS011;9716;53.114;18.040;2024-01-30T13:28:43;9.60;;;5.37;;
19167;SDS011;9716;53.114;18.040;2024-01-30T13:31:14;20.93;;;6.07;;
19167;SDS011;9716;53.114;18.040;2024-01-30T13:33:43;14.73;;;5.47;;
19167;SDS011;9716;53.114;18.040;2024-01-30T13:36:12;15.43;;;5.83;;
19167;SDS011;9716;53.114;18.040;2024-01-30T13:38:52;14.80;;;5.73;;
19167;SDS011;9716;53.114;18.040;2024-01-30T13:41:21;15.13;;;5.87;;
19167;SDS011;9716;53.114;18.040;2024-01-30T13:43:51;14.47;;;5.87;;
19167;SDS011;9716;53.114;18.040;2024-01-30T13:46:20;13.50;;;5.70;;
19167;SDS011;9716;53.114;18.040;2024-01-30T13:48:49;12.50;;;5.10;;
19167;SDS011;9716;53.114;18.040;2024-01-30T13:51:18;13.83;;;5.37;;
19167;SDS011;9716;53.114;18.040;2024-01-30T13:53:47;13.57;;;5.77;;
19167;SDS011;9716;53.114;18.040;2024-01-30T13:56:17;15.87;;;6.50;;
19167;SDS011;9716;53.114;18.040;2024-01-30T13:58:45;16.73;;;5.73;;
19167;SDS011;9716;53.114;18.040;2024-01-30T14:01:15;13.33;;;5.93;;
19167;SDS011;9716;53.114;18.040;2024-01-30T14:03:44;14.33;;;5.60;;
19167;SDS011;9716;53.114;18.040;2024-01-30T14:06:13;11.47;;;6.40;;
19167;SDS011;9716;53.114;18.040;2024-01-30T14:08:42;14.90;;;6.13;;
19167;SDS011;9716;53.114;18.040;2024-01-30T14:11:19;14.10;;;5.73;;
19167;SDS011;9716;53.114;18.040;2024-01-30T14:13:47;14.00;;;5.30;;
19167;SDS011;9716;53.114;18.040;2024-01-30T14:16:17;14.30;;;5.93;;
19167;SDS011;9716;53.114;18.040;2024-01-30T14:18:46;18.40;;;6.40;;
19167;SDS011;9716;53.114;18.040;2024-01-30T14:21:15;13.17;;;6.07;;
19167;SDS011;9716;53.114;18.040;2024-01-30T14:23:43;13.60;;;5.40;;
19167;SDS011;9716;53.114;18.040;2024-01-30T14:26:12;15.73;;;6.33;;
19167;SDS011;9716;53.114;18.040;2024-01-30T14:28:40;19.10;;;5.77;;
19167;SDS011;9716;53.114;18.040;2024-01-30T14:31:10;14.27;;;5.60;;
19167;SDS011;9716;53.114;18.040;2024-01-30T14:33:51;14.50;;;5.53;;
19167;SDS011;9716;53.114;18.040;2024-01-30T14:36:20;14.80;;;5.37;;
19167;SDS011;9716;53.114;18.040;2024-01-30T14:38:48;16.53;;;5.97;;
19167;SDS011;9716;53.114;18.040;2024-01-30T14:41:17;11.13;;;5.73;;
19167;SDS011;9716;53.114;18.040;2024-01-30T14:43:45;15.27;;;5.93;;